Latest Weather Observations for Mallacoota

IDV60801

Issued at 6:52 am EDT Saturday 19 October 2019 (issued every 10 minutes, with the page automatically refreshed every 10 minutes)

About weather observations | Map of weather stations | Latest weather observations for VIC | Other Formats
Station Details ID: 084084 Name: MALLACOOTA Lat: -37.60 Lon: 149.73 Height: 22.0 m
Data from the previous 72 hours. | See also: Recent months at Mallacoota
Date/Time
EDT
Temp
°C
App
Temp
°C
Dew
Point
°C
Rel
Hum
%
Delta-T
°C
Wind Press
QNH
hPa
Press
MSL
hPa
Rain since
9am
mm
Dir  Spd
km/h
Gust
km/h
Spd
kts
Gust
kts
19/06:30am 10.3 8.2 8.2 87 1.0 WNW 9 15 5 8 1011.1 1011.1 0.0
19/06:00am 9.9 7.7 7.8 87 1.0 WNW 9 11 5 6 1011.0 1011.0 0.0
19/05:30am 9.7 7.7 7.1 84 1.2 NW 7 9 4 5 1010.8 1010.8 0.0
19/05:00am 10.5 9.5 7.4 81 1.5 WNW 2 6 1 3 1010.4 1010.4 0.0
19/04:30am 11.9 9.8 8.4 79 1.7 WSW 9 19 5 10 1010.6 1010.6 0.0
19/04:00am 12.4 10.2 9.2 81 1.6 WSW 11 20 6 11 1011.1 1011.1 0.0
19/03:30am 11.5 9.9 8.2 80 1.6 WNW 6 9 3 5 1011.1 1011.1 0.0
19/03:00am 12.5 10.5 8.8 78 1.9 W 9 15 5 8 1011.2 1011.2 0.0
19/02:30am 13.1 9.7 9.0 76 2.1 SW 17 32 9 17 1011.4 1011.4 0.0
19/02:00am 13.2 8.7 8.5 73 2.3 SW 22 35 12 19 1011.2 1011.2 0.0
19/01:30am 11.0 8.1 4.9 66 2.8 WNW 9 13 5 7 1010.0 1010.0 0.0
19/01:00am 11.4 8.3 5.5 67 2.7 WNW 11 13 6 7 1009.5 1009.5 0.0
19/12:30am 11.7 9.1 6.2 69 2.6 NW 9 13 5 7 1009.1 1009.1 0.0
19/12:00am 11.1 8.7 7.2 77 1.9 NW 9 13 5 7 1009.4 1009.4 0.0
 
Date/Time
EDT
Temp
°C
App
Temp
°C
Dew
Point
°C
Rel
Hum
%
Delta-T
°C
Wind Press
QNH
hPa
Press
MSL
hPa
Rain since
9am
mm
Dir  Spd
km/h
Gust
km/h
Spd
kts
Gust
kts
18/11:30pm 11.4 8.4 7.5 77 1.9 NW 13 17 7 9 1009.7 1009.7 0.0
18/11:00pm 12.0 8.9 7.3 73 2.3 NW 13 17 7 9 1010.0 1010.0 0.0
18/10:30pm 12.1 9.4 7.4 73 2.3 NW 11 15 6 8 1010.4 1010.4 0.0
18/10:00pm 12.4 10.0 7.1 70 2.6 WNW 9 11 5 6 1010.9 1010.9 0.0
18/09:30pm 14.1 11.8 7.4 64 3.3 WNW 9 15 5 8 1011.4 1011.4 0.0
18/09:00pm 14.0 11.5 8.4 69 2.8 WNW 11 17 6 9 1011.1 1011.1 0.0
18/08:30pm 14.2 11.8 8.6 69 2.8 NW 11 13 6 7 1010.6 1010.6 0.0
18/08:00pm 14.9 13.2 8.4 65 3.3 NNW 7 9 4 5 1010.1 1010.1 0.0
18/07:30pm 16.5 14.5 8.7 60 4.0 NNW 9 15 5 8 1009.4 1009.4 0.0
18/07:00pm 16.8 14.5 9.0 60 4.0 N 11 15 6 8 1008.9 1008.9 0.0
18/06:30pm 18.2 15.1 8.7 54 4.9 N 15 20 8 11 1008.9 1008.9 0.0
18/06:00pm 16.8 15.5 11.3 70 3.0 NNE 9 19 5 10 1009.1 1009.1 0.0
18/05:30pm 17.0 14.5 11.1 68 3.2 ENE 15 20 8 11 1009.3 1009.3 0.0
18/05:00pm 16.7 12.5 9.9 64 3.6 NE 22 32 12 17 1009.4 1009.4 0.0
18/04:30pm 16.6 12.7 9.5 63 3.7 ENE 20 32 11 17 1009.5 1009.5 0.0
18/04:00pm 16.8 12.5 9.5 62 3.8 ENE 22 28 12 15 1010.0 1010.0 0.0
18/03:30pm 16.7 12.3 9.1 61 3.9 ENE 22 30 12 16 1010.2 1010.2 0.0
18/03:00pm 16.6 12.9 9.3 62 3.8 E 19 28 10 15 1010.6 1010.6 0.0
18/02:30pm 16.2 13.2 9.2 63 3.6 ESE 15 22 8 12 1011.5 1011.5 0.0
18/02:00pm 16.0 13.4 9.2 64 3.5 ESE 13 17 7 9 1012.1 1012.1 0.0
18/01:30pm 15.2 12.4 8.4 64 3.4 SE 13 20 7 11 1012.4 1012.4 0.0
18/01:00pm 14.4 10.4 8.4 67 3.0 S 19 24 10 13 1012.5 1012.5 0.0
18/12:30pm 14.3 10.7 8.5 68 2.9 S 17 24 9 13 1013.0 1013.0 0.0
18/12:00pm 14.5 9.7 8.9 69 2.8 S 24 30 13 16 1013.3 1013.3 0.0
18/11:30am 14.6 10.0 8.1 65 3.3 S 22 32 12 17 1013.9 1013.9 0.0
18/11:00am 16.5 13.5 6.1 50 5.1 W 11 20 6 11 1014.2 1014.2 0.0
18/10:30am 15.7 12.5 6.7 55 4.4 WSW 13 19 7 10 1014.6 1014.6 0.0
18/10:00am 15.0 11.7 6.6 57 4.1 W 13 20 7 11 1014.8 1014.8 0.0
18/09:30am 14.0 10.1 7.1 63 3.4 WSW 17 26 9 14 1015.1 1015.1 0.0
18/09:00am 13.5 10.3 6.8 64 3.2 WSW 13 26 7 14 1015.2 1015.2 8.0
18/08:30am 12.9 10.2 7.4 69 2.7 W 11 19 6 10 1015.2 1015.2 8.0
18/08:00am 12.1 9.0 7.4 73 2.3 W 13 20 7 11 1015.1 1015.1 8.0
18/07:30am 11.7 8.2 7.2 74 2.2 WSW 15 28 8 15 1015.0 1015.0 8.0
18/07:00am 11.1 8.3 7.0 76 2.0 W 11 19 6 10 1014.4 1014.4 8.0
18/06:30am 10.4 6.7 6.5 77 1.8 WSW 15 24 8 13 1013.8 1013.8 8.0
18/06:00am 10.2 6.5 6.4 77 1.8 WSW 15 32 8 17 1013.5 1013.5 8.0
18/05:30am 10.3 6.2 6.3 76 1.9 W 17 33 9 18 1013.0 1013.0 8.0
18/05:00am 10.2 6.5 6.2 76 1.9 WSW 15 26 8 14 1012.9 1012.9 8.0
18/04:30am 10.4 5.9 6.2 75 2.0 W 19 33 10 18 1012.5 1012.5 8.0
18/04:00am 10.6 7.3 6.2 74 2.1 W 13 26 7 14 1012.4 1012.4 8.0
18/03:30am 11.2 6.6 6.5 73 2.2 WSW 20 32 11 17 1012.2 1012.2 8.0
18/03:00am 11.4 6.8 6.5 72 2.3 WSW 20 39 11 21 1011.9 1011.9 8.0
18/02:30am 11.5 6.5 6.4 71 2.4 WSW 22 44 12 24 1011.5 1011.5 8.0
18/02:00am 11.6 7.0 6.5 71 2.4 WSW 20 50 11 27 1011.4 1011.4 8.0
18/01:30am 11.5 6.5 6.6 72 2.3 WSW 22 37 12 20 1011.3 1011.3 8.0
18/01:00am 11.5 6.5 6.4 71 2.4 WSW 22 46 12 25 1011.3 1011.3 8.0
18/12:36am 11.3 5.1 6.0 70 2.5 WSW 28 56 15 30 1011.2 1011.2 8.0
18/12:30am 11.4 5.9 6.1 70 2.5 WSW 24 56 13 30 1011.1 1011.1 8.0
18/12:00am 11.2 6.1 5.9 70 2.5 WSW 22 39 12 21 1011.0 1011.0 8.0
 
Date/Time
EDT
Temp
°C
App
Temp
°C
Dew
Point
°C
Rel
Hum
%
Delta-T
°C
Wind Press
QNH
hPa
Press
MSL
hPa
Rain since
9am
mm
Dir  Spd
km/h
Gust
km/h
Spd
kts
Gust
kts
17/11:30pm 11.2 6.6 6.3 72 2.3 WSW 20 37 11 20 1011.0 1011.0 8.0
17/11:00pm 11.1 6.0 6.0 71 2.4 WSW 22 35 12 19 1010.9 1010.9 8.0
17/10:30pm 11.0 6.4 5.7 70 2.5 WSW 19 35 10 19 1010.7 1010.7 8.0
17/10:00pm 10.6 5.9 6.0 73 2.1 W 20 41 11 22 1010.1 1010.1 8.0
17/09:30pm 10.1 5.6 6.1 76 1.9 W 19 33 10 18 1009.9 1009.9 8.0
17/09:00pm 9.6 5.9 6.5 81 1.4 W 15 24 8 13 1009.6 1009.6 8.0
17/08:30pm 9.3 6.4 6.4 82 1.3 W 11 22 6 12 1009.5 1009.5 8.0
17/08:00pm 9.3 6.7 6.0 80 1.5 WNW 9 15 5 8 1009.3 1009.3 7.6
17/07:30pm 9.4 6.8 6.1 80 1.5 WNW 9 20 5 11 1008.9 1008.9 7.6
17/07:00pm 9.7 5.5 5.7 76 1.8 WSW 17 46 9 25 1008.3 1008.3 7.6
17/06:30pm 11.6 6.1 5.9 68 2.7 WSW 24 48 13 26 1008.3 1008.3 7.0
17/06:00pm 13.1 9.0 6.0 62 3.4 SW 17 43 9 23 1007.6 1007.6 6.8
17/05:30pm 12.7 7.7 6.3 65 3.0 SW 22 39 12 21 1007.1 1007.1 6.8
17/05:00pm 13.9 10.1 7.7 66 3.1 WSW 17 33 9 18 1006.4 1006.4 6.8
17/04:30pm 12.8 10.9 9.1 78 1.9 WNW 9 13 5 7 1006.3 1006.3 6.8
17/04:00pm 10.3 7.9 6.8 79 1.7 W 9 15 5 8 1006.5 1006.5 6.8
17/03:30pm 9.8 5.1 5.2 73 2.1 W 19 32 10 17 1006.5 1006.5 6.8
17/03:16pm 12.0 5.8 6.3 68 2.7 WSW 28 50 15 27 1006.8 1006.8 5.8
17/03:00pm 13.9 8.1 6.3 60 3.7 SW 26 39 14 21 1005.7 1005.7 5.6
17/02:30pm 14.6 9.6 6.4 58 4.0 SW 22 35 12 19 1005.2 1005.2 5.6
17/02:23pm 14.6 8.5 6.4 58 4.0 SW 28 46 15 25 1005.2 1005.2 5.6
17/02:00pm 14.1 9.4 7.9 66 3.1 SW 22 48 12 26 1005.2 1005.2 5.6
17/01:30pm 11.1 7.4 8.1 82 1.5 SW 17 30 9 16 1005.5 1005.5 5.6
17/01:00pm 11.5 7.7 9.2 86 1.2 SW 19 30 10 16 1005.7 1005.7 5.6
17/12:30pm 10.5 3.9 7.6 82 1.4 SW 32 54 17 29 1005.0 1005.0 4.6
17/12:00pm 11.4 5.9 9.1 86 1.2 SSW 28 48 15 26 1005.7 1005.7 4.6
17/11:55am 12.2 7.6 9.8 85 1.2 SSW 24 48 13 26 1005.8 1005.8 4.6
17/11:51am 13.4 10.2 11.1 86 1.2 SSW 19 48 10 26 1005.4 1005.4 4.6
17/11:30am 13.6 12.0 11.7 88 1.0 SW 11 22 6 12 1005.3 1005.3 4.6
17/11:00am 12.2 11.8 9.9 86 1.2 ESE 2 7 1 4 1005.0 1005.0 4.6
17/10:30am 12.2 8.5 9.4 83 1.4 SW 19 32 10 17 1005.6 1005.6 1.8
17/10:00am 13.2 11.2 10.2 82 1.6 SW 11 19 6 10 1004.9 1004.9 0.0
17/09:30am 13.5 11.7 11.0 85 1.3 NW 11 15 6 8 1005.0 1005.0 0.0
17/09:00am 13.3 12.0 11.4 88 1.0 NNW 9 13 5 7 1005.0 1005.0 1.2
17/08:30am 13.1 11.9 11.5 90 0.8 NW 9 13 5 7 1005.1 1005.1 1.2
17/08:00am 12.1 10.3 10.8 92 0.7 NW 11 15 6 8 1005.2 1005.2 1.2
17/07:30am 10.8 8.7 9.7 93 0.6 NW 11 17 6 9 1005.5 1005.5 1.2
17/07:00am 9.7 7.3 8.6 93 0.5 WNW 11 15 6 8 1005.6 1005.6 1.0
17/06:30am 9.3 7.7 8.1 92 0.6 NNW 6 9 3 5 1005.7 1005.7 1.0
17/06:00am 9.5 7.0 8.3 92 0.6 WNW 11 15 6 8 1006.1 1006.1 1.0
17/05:30am 9.6 7.1 8.4 92 0.6 WNW 11 15 6 8 1006.3 1006.3 1.0
17/05:00am 9.9 7.5 8.7 92 0.6 NW 11 15 6 8 1006.3 1006.3 1.0
17/04:30am 10.2 7.9 9.0 92 0.6 NW 11 13 6 7 1006.3 1006.3 1.0
17/04:00am 10.3 8.4 9.1 92 0.6 NW 9 13 5 7 1006.6 1006.6 1.0
17/03:30am 9.4 8.6 8.0 91 0.7 NW 2 7 1 4 1006.8 1006.8 1.0
17/03:00am 10.6 9.3 9.2 91 0.7 NW 6 9 3 5 1007.0 1007.0 1.0
17/02:30am 10.7 9.8 9.3 91 0.7 WNW 4 7 2 4 1007.3 1007.3 1.0
17/02:00am 10.8 10.6 9.2 90 0.8 CALM 0 0 0 0 1007.6 1007.6 1.0
17/01:30am 12.2 12.1 10.8 91 0.7 ESE 2 7 1 4 1008.0 1008.0 1.0
17/01:00am 12.1 11.2 10.5 90 0.8 N 6 9 3 5 1008.3 1008.3 1.0
17/12:30am 11.6 10.5 10.0 90 0.8 WNW 6 9 3 5 1008.1 1008.1 1.0
17/12:00am 12.3 11.2 10.7 90 0.8 N 7 11 4 6 1007.9 1007.9 1.0
 
Date/Time
EDT
Temp
°C
App
Temp
°C
Dew
Point
°C
Rel
Hum
%
Delta-T
°C
Wind Press
QNH
hPa
Press
MSL
hPa
Rain since
9am
mm
Dir  Spd
km/h
Gust
km/h
Spd
kts
Gust
kts
16/11:30pm 12.6 11.5 10.8 89 0.9 N 7 9 4 5 1007.9 1007.9 1.0
16/11:00pm 13.4 12.2 11.6 89 1.0 N 9 15 5 8 1008.4 1008.4 1.0
16/10:30pm 13.0 12.2 11.1 88 1.0 NNW 6 9 3 5 1008.2 1008.2 1.0
16/10:00pm 13.3 12.0 11.4 88 1.0 NNW 9 13 5 7 1008.3 1008.3 1.0
16/09:30pm 13.7 12.5 11.6 87 1.1 NNW 9 13 5 7 1008.4 1008.4 1.0
16/09:00pm 13.4 12.6 11.1 86 1.2 NNE 6 6 3 3 1008.3 1008.3 1.0
16/08:30pm 14.0 14.5 11.7 86 1.2 CALM 0 6 0 3 1008.4 1008.4 1.0
16/08:00pm 14.8 14.2 12.3 85 1.4 NNW 7 13 4 7 1008.6 1008.6 1.0
16/07:30pm 14.9 14.1 12.8 87 1.2 N 9 17 5 9 1008.7 1008.7 1.0
16/07:00pm 15.0 14.7 12.7 86 1.3 N 6 13 3 7 1008.6 1008.6 1.0
16/06:30pm 15.1 14.2 12.6 85 1.4 N 9 13 5 7 1008.9 1008.9 1.0
16/06:00pm 15.3 14.0 12.4 83 1.6 NNE 11 15 6 8 1008.8 1008.8 1.0
16/05:30pm 15.2 14.6 12.3 83 1.6 NNE 7 13 4 7 1008.7 1008.7 1.0
16/05:00pm 15.3 14.3 12.4 83 1.6 NNE 9 11 5 6 1008.8 1008.8 1.0
16/04:30pm 15.6 15.1 12.5 82 1.7 NE 7 7 4 4 1009.3 1009.3 0.8
16/04:00pm 15.5 16.2 12.1 80 1.9 CALM 0 0 0 0 1009.6 1009.6 0.8
16/03:30pm 15.8 14.6 11.6 76 2.3 SE 9 13 5 7 1009.9 1009.9 0.0
16/03:00pm 16.5 15.0 11.9 74 2.5 ESE 11 17 6 9 1009.2 1009.2 0.0
16/02:30pm 17.3 15.6 12.6 74 2.6 ESE 13 20 7 11 1009.2 1009.2 0.0
16/02:00pm 17.2 15.1 12.3 73 2.7 ESE 15 20 8 11 1009.4 1009.4 0.0
16/01:30pm 16.6 14.8 12.0 74 2.5 ESE 13 19 7 10 1009.6 1009.6 0.0
16/01:00pm 16.5 14.5 11.6 73 2.7 ESE 13 19 7 10 1010.2 1010.2 0.0
16/12:30pm 17.4 15.6 12.1 71 2.9 E 13 17 7 9 1009.9 1009.9 0.0
16/12:00pm 16.9 14.9 11.6 71 2.9 E 13 17 7 9 1010.5 1010.5 0.0
16/11:30am 16.8 14.6 10.9 68 3.2 ESE 13 15 7 8 1010.8 1010.8 0.0
16/11:00am 17.0 15.3 11.3 69 3.1 E 11 13 6 7 1011.2 1011.2 0.0
16/10:30am 16.0 14.4 10.3 69 3.0 E 9 13 5 7 1011.7 1011.7 0.0
16/10:00am 15.7 14.5 10.2 70 2.9 ENE 7 9 4 5 1011.7 1011.7 0.0
16/09:30am 15.9 14.8 10.7 71 2.8 E 7 11 4 6 1012.2 1012.2 0.0
16/09:00am 14.8 13.6 10.2 74 2.4 WNW 7 9 4 5 1012.6 1012.6 0.0
16/08:30am 13.8 12.4 9.6 76 2.2 NW 7 9 4 5 1012.4 1012.4 0.0
16/08:00am 12.8 11.0 9.4 80 1.7 WNW 9 11 5 6 1012.7 1012.7 0.0
16/07:30am 12.2 10.8 9.4 83 1.4 WNW 7 9 4 5 1012.8 1012.8 0.0
16/07:00am 11.6 9.7 9.2 85 1.2 WNW 9 11 5 6 1013.0 1013.0 0.0

Other formats

Comma delimited format used in spreadsheet applications
http://www.bom.gov.au/fwo/IDV60801/IDV60801.94935.axf

JavaScript Object Notation format (JSON) in row-major order
http://www.bom.gov.au/fwo/IDV60801/IDV60801.94935.json

Data quality

Most of these data are generated automatically and are frequently updated. Quality checks on data are not normally performed. It is possible for incorrect values to appear. Refer to information at About Latest Weather Observations and please check the disclaimer before using these data.